Pattingham, United Kingdom
Current Conditions -  °F | °C
As of 8:50 AM on Saturday 25 Oct 2014 (Local Time) from EGOS Reporting Station
Broken Clouds Broken Clouds  
Wind Chill: 44°   Ceiling: 3000
Heat Index: 48°   Visibility: 6mi
Dew Point: 45°   Wind: 9mph
Humidity: 87%   Direction: 160°SSE
Pressure: 29.94"   Gusts: NA
Location:  52.59°N, 2.27°W
Report Text: EGOS 250750Z AUTO 16008KT 9999 FEW024/// BKN030/// 09/07 Q1014
Loading
Personal Weather Stations






























Interactive Weather Map
Tropical Storm Tracking
New forecast layout! Learn more

10-Day Weather Forecast

Advertisements
Track Severe Weather on mobile